createdAt,value
2022-11-02T00:01:24.799Z,83.00
2022-11-02T00:03:51.962Z,83.00
2022-11-02T00:06:19.050Z,82.90
2022-11-02T00:08:46.146Z,83.00
2022-11-02T00:11:13.175Z,83.00
2022-11-02T00:13:40.223Z,83.00
2022-11-02T00:16:11.320Z,83.40
2022-11-02T00:18:39.012Z,83.30
2022-11-02T00:21:06.359Z,83.30
2022-11-02T00:23:34.019Z,83.20
2022-11-02T00:26:02.849Z,83.20
2022-11-02T00:28:30.778Z,83.30
2022-11-02T00:30:57.863Z,83.20
2022-11-02T00:33:24.979Z,83.20
2022-11-02T00:35:54.069Z,83.10
2022-11-02T00:38:21.107Z,83.00
2022-11-02T00:40:48.211Z,82.90
2022-11-02T00:43:15.364Z,82.80
2022-11-02T00:45:42.425Z,82.70
2022-11-02T00:48:09.593Z,82.70
2022-11-02T00:50:36.651Z,82.60
2022-11-02T00:53:03.919Z,83.30
2022-11-02T00:55:31.000Z,82.60
2022-11-02T00:57:58.200Z,82.50
2022-11-02T01:00:25.243Z,82.70
2022-11-02T01:02:52.317Z,82.80
2022-11-02T01:05:19.383Z,83.40
2022-11-02T01:07:46.467Z,82.90
2022-11-02T01:10:13.524Z,82.90
2022-11-02T01:12:40.982Z,82.70
2022-11-02T01:15:10.253Z,82.70
2022-11-02T01:17:37.668Z,82.90
2022-11-02T01:20:06.104Z,82.90
2022-11-02T01:22:33.164Z,82.70
2022-11-02T01:25:00.229Z,82.70
2022-11-02T01:27:27.318Z,82.60
2022-11-02T01:29:54.332Z,82.50
2022-11-02T01:32:21.376Z,82.30
2022-11-02T01:34:48.421Z,82.20
2022-11-02T01:37:15.612Z,82.00
2022-11-02T01:39:42.659Z,82.00
2022-11-02T01:42:21.094Z,81.90
2022-11-02T01:44:48.481Z,81.70
2022-11-02T01:47:45.416Z,81.60
2022-11-02T01:50:18.197Z,81.60
2022-11-02T01:52:45.225Z,81.50
2022-11-02T01:55:21.267Z,81.60
2022-11-02T01:57:53.601Z,81.40
2022-11-02T02:00:20.913Z,81.30
2022-11-02T02:03:21.335Z,81.40
2022-11-02T02:05:54.801Z,81.40
2022-11-02T02:08:24.858Z,81.60
2022-11-02T02:10:55.734Z,81.70
2022-11-02T02:13:23.881Z,81.60
2022-11-02T02:16:11.202Z,81.80
2022-11-02T02:18:50.281Z,81.90
2022-11-02T02:21:24.406Z,82.20
2022-11-02T02:24:06.898Z,82.30
2022-11-02T02:26:54.902Z,82.30
2022-11-02T02:29:46.426Z,82.30
2022-11-02T02:32:47.766Z,82.30
2022-11-02T02:35:21.101Z,82.80
2022-11-02T02:37:59.752Z,82.60
2022-11-02T02:40:32.053Z,82.60
2022-11-02T02:43:08.499Z,82.70
2022-11-02T02:45:40.223Z,82.80
2022-11-02T02:48:20.068Z,82.90
2022-11-02T02:50:56.816Z,83.70
2022-11-02T02:53:32.107Z,82.90
2022-11-02T02:56:01.301Z,82.80
2022-11-02T02:58:35.563Z,82.90
2022-11-02T03:01:04.871Z,82.90
2022-11-02T03:03:34.232Z,83.00
2022-11-02T03:06:10.023Z,83.10
2022-11-02T03:08:39.470Z,82.90
2022-11-02T03:11:16.712Z,83.00
2022-11-02T03:14:00.584Z,83.00
2022-11-02T03:16:49.348Z,83.10
2022-11-02T03:19:55.480Z,83.10
2022-11-02T03:22:31.105Z,83.00
2022-11-02T03:25:11.908Z,83.00
2022-11-02T03:27:54.248Z,82.90
2022-11-02T03:30:28.233Z,82.90
2022-11-02T03:33:15.216Z,83.00
2022-11-02T03:35:56.531Z,83.00
2022-11-02T03:38:37.089Z,83.50
2022-11-02T03:41:05.859Z,83.60
2022-11-02T03:43:38.664Z,83.40
2022-11-02T03:46:08.579Z,83.30
2022-11-02T03:48:44.760Z,83.10
2022-11-02T03:51:15.052Z,83.00
2022-11-02T03:53:53.255Z,82.90
2022-11-02T03:56:35.990Z,82.80
2022-11-02T03:59:03.698Z,82.60
2022-11-02T04:01:36.984Z,82.40
2022-11-02T04:04:04.984Z,82.20
2022-11-02T04:06:32.912Z,82.20
2022-11-02T04:09:00.701Z,83.00
2022-11-02T04:11:46.817Z,82.00
2022-11-02T04:14:32.684Z,81.80
2022-11-02T04:17:18.717Z,81.60
2022-11-02T04:19:49.649Z,81.30
2022-11-02T04:22:36.593Z,81.00
2022-11-02T04:25:16.436Z,80.70
2022-11-02T04:27:44.258Z,80.40
2022-11-02T04:30:11.866Z,80.10
2022-11-02T04:33:02.559Z,80.00
2022-11-02T04:35:30.029Z,80.00
2022-11-02T04:38:16.646Z,80.10
2022-11-02T04:40:43.788Z,80.10
2022-11-02T04:43:11.159Z,80.00
2022-11-02T04:45:38.511Z,80.00
2022-11-02T04:48:07.651Z,80.10
2022-11-02T04:50:36.291Z,80.00
2022-11-02T04:53:07.066Z,80.00
2022-11-02T04:55:34.715Z,80.20
2022-11-02T04:58:02.035Z,80.20
2022-11-02T05:00:29.430Z,80.90
2022-11-02T05:02:56.935Z,80.50
2022-11-02T05:05:24.551Z,80.60
2022-11-02T05:07:51.635Z,80.60
2022-11-02T05:10:18.710Z,80.70
2022-11-02T05:12:45.762Z,80.90
2022-11-02T05:15:12.802Z,80.90
2022-11-02T05:17:39.822Z,81.00
2022-11-02T05:20:08.602Z,81.30
2022-11-02T05:22:35.618Z,81.30
2022-11-02T05:25:02.699Z,81.80
2022-11-02T05:27:29.731Z,81.90
2022-11-02T05:29:56.827Z,82.00
2022-11-02T05:32:23.863Z,82.00
2022-11-02T05:34:50.904Z,81.90
2022-11-02T05:37:18.043Z,82.00
2022-11-02T05:39:47.813Z,81.90
2022-11-02T05:42:17.715Z,81.80
2022-11-02T05:44:44.736Z,81.90
2022-11-02T05:47:11.793Z,82.00
2022-11-02T05:49:38.860Z,82.10
2022-11-02T05:52:05.930Z,82.10
2022-11-02T05:54:32.996Z,82.70
2022-11-02T05:57:00.023Z,82.00
2022-11-02T05:59:27.132Z,81.90
2022-11-02T06:01:54.199Z,81.60
2022-11-02T06:04:21.324Z,81.90
2022-11-02T06:06:48.439Z,82.00
2022-11-02T06:09:15.513Z,81.80
2022-11-02T06:11:42.565Z,81.90
2022-11-02T06:14:09.626Z,82.00
2022-11-02T06:16:36.702Z,82.60
2022-11-02T06:19:03.848Z,82.20
2022-11-02T06:21:30.934Z,82.20
2022-11-02T06:23:58.984Z,82.40
2022-11-02T06:26:26.109Z,82.30
2022-11-02T06:28:53.125Z,82.20
2022-11-02T06:31:20.189Z,82.10
2022-11-02T06:33:47.297Z,82.00
2022-11-02T06:36:14.393Z,81.90
2022-11-02T06:38:41.998Z,81.80
2022-11-02T06:41:09.239Z,81.70
2022-11-02T06:43:38.210Z,81.40
2022-11-02T06:46:06.073Z,81.40
2022-11-02T06:48:35.184Z,81.30
2022-11-02T06:51:04.775Z,81.10
2022-11-02T06:53:32.321Z,81.00
2022-11-02T06:56:00.471Z,81.00
2022-11-02T06:58:27.775Z,81.00
2022-11-02T07:01:00.282Z,81.00
2022-11-02T07:03:28.309Z,80.80
2022-11-02T07:05:55.692Z,80.90
2022-11-02T07:08:23.244Z,81.10
2022-11-02T07:10:50.418Z,80.70
2022-11-02T07:13:18.009Z,80.70
2022-11-02T07:15:45.117Z,79.40
2022-11-02T07:18:13.273Z,80.10
2022-11-02T07:20:40.322Z,80.50
2022-11-02T07:23:08.754Z,80.70
2022-11-02T07:25:36.096Z,80.70
2022-11-02T07:28:03.913Z,80.70
2022-11-02T07:30:33.727Z,80.80
2022-11-02T07:33:00.935Z,81.00
2022-11-02T07:35:28.399Z,81.00
2022-11-02T07:38:00.537Z,81.00
2022-11-02T07:40:31.646Z,81.30
2022-11-02T07:42:59.042Z,81.30
2022-11-02T07:45:26.885Z,81.50
2022-11-02T07:47:53.920Z,81.60
2022-11-02T07:50:23.459Z,81.60
2022-11-02T07:52:53.208Z,81.70
2022-11-02T07:55:22.577Z,81.80
2022-11-02T07:57:59.939Z,81.80
2022-11-02T08:00:29.665Z,81.80
2022-11-02T08:02:58.355Z,81.80
2022-11-02T08:05:26.663Z,81.70
2022-11-02T08:07:57.750Z,81.70
2022-11-02T08:10:25.627Z,82.10
2022-11-02T08:12:52.809Z,82.60
2022-11-02T08:15:19.842Z,80.40
2022-11-02T08:17:47.179Z,80.50
2022-11-02T08:20:14.330Z,80.40
2022-11-02T08:22:41.375Z,80.40
2022-11-02T08:25:08.892Z,81.10
2022-11-02T08:27:36.019Z,80.50
2022-11-02T08:30:03.383Z,81.10
2022-11-02T08:32:30.511Z,80.30
2022-11-02T08:34:57.531Z,80.50
2022-11-02T08:37:24.595Z,80.50
2022-11-02T08:39:51.652Z,80.50
2022-11-02T08:42:18.673Z,81.10
2022-11-02T08:44:45.733Z,80.40
2022-11-02T08:47:13.336Z,80.50
2022-11-02T08:49:40.440Z,80.50
2022-11-02T08:52:07.748Z,80.30
2022-11-02T08:54:34.760Z,80.30
2022-11-02T08:57:01.810Z,80.30
2022-11-02T08:59:29.034Z,80.30
2022-11-02T09:01:56.196Z,80.30
2022-11-02T09:04:23.372Z,80.30
2022-11-02T09:06:50.397Z,80.30
2022-11-02T09:09:17.549Z,80.40
2022-11-02T09:11:44.572Z,80.30
2022-11-02T09:14:11.689Z,80.30
2022-11-02T09:16:41.448Z,80.50
2022-11-02T09:19:08.953Z,80.40
2022-11-02T09:21:36.777Z,80.60
2022-11-02T09:24:04.142Z,80.50
2022-11-02T09:26:31.166Z,80.60
2022-11-02T09:28:58.187Z,80.60
2022-11-02T09:31:25.218Z,80.50
2022-11-02T09:33:52.242Z,80.50
2022-11-02T09:36:19.282Z,79.50
2022-11-02T09:38:46.346Z,78.00
2022-11-02T09:41:21.902Z,76.80
2022-11-02T09:44:02.822Z,76.00
2022-11-02T09:46:40.503Z,75.10
2022-11-02T09:49:19.703Z,74.30
2022-11-02T09:51:49.845Z,72.70
2022-11-02T09:54:22.521Z,74.00
2022-11-02T09:56:51.472Z,72.90
2022-11-02T09:59:21.724Z,72.90
2022-11-02T10:01:57.871Z,72.60
2022-11-02T10:04:55.039Z,72.40
2022-11-02T10:07:39.519Z,71.50
2022-11-02T10:10:48.186Z,73.10
2022-11-02T10:13:24.579Z,73.80
2022-11-02T10:15:56.054Z,74.00
2022-11-02T10:18:28.426Z,72.80
2022-11-02T10:21:00.650Z,73.40
2022-11-02T10:23:35.351Z,72.00
2022-11-02T10:26:03.475Z,72.90
2022-11-02T10:28:36.175Z,72.20
2022-11-02T10:31:03.962Z,72.70
2022-11-02T10:33:31.727Z,73.30
2022-11-02T10:36:26.645Z,72.90
2022-11-02T10:38:53.667Z,73.50
2022-11-02T10:41:54.219Z,75.10
2022-11-02T10:44:46.882Z,75.00
2022-11-02T10:47:18.688Z,75.50
2022-11-02T10:49:55.077Z,76.00
2022-11-02T10:52:22.309Z,76.10
2022-11-02T10:54:50.849Z,76.30
2022-11-02T10:57:24.396Z,76.30
2022-11-02T11:00:29.009Z,77.20
2022-11-02T11:03:14.658Z,76.80
2022-11-02T11:05:50.753Z,77.20
2022-11-02T11:08:31.255Z,77.80
2022-11-02T11:11:32.617Z,78.00
2022-11-02T11:16:56.724Z,78.70
2022-11-02T11:19:40.350Z,78.80
2022-11-02T11:22:30.912Z,78.60
2022-11-02T11:25:13.201Z,78.70
2022-11-02T11:27:49.393Z,78.80
2022-11-02T11:33:21.145Z,79.00
2022-11-02T11:35:50.840Z,79.00
2022-11-02T11:38:22.466Z,79.00
2022-11-02T11:40:53.931Z,79.00
2022-11-02T11:43:24.667Z,79.20
2022-11-02T11:46:06.246Z,79.40
2022-11-02T11:48:41.813Z,79.10
2022-11-02T11:51:30.864Z,78.90
2022-11-02T11:54:18.751Z,78.50
2022-11-02T11:56:47.722Z,78.70
2022-11-02T11:59:42.206Z,78.10
2022-11-02T12:02:29.523Z,77.80
2022-11-02T12:05:02.399Z,77.80
2022-11-02T12:07:55.692Z,77.60
2022-11-02T12:10:45.400Z,77.40
2022-11-02T12:13:50.210Z,77.30
2022-11-02T12:16:29.137Z,76.90
2022-11-02T12:19:09.822Z,76.70
2022-11-02T12:22:13.866Z,76.90
2022-11-02T12:24:56.594Z,77.00
2022-11-02T12:27:48.083Z,76.80
2022-11-02T12:30:32.998Z,76.90
2022-11-02T12:33:10.457Z,76.90
2022-11-02T12:35:49.969Z,76.80
2022-11-02T12:38:47.762Z,76.80
2022-11-02T12:41:46.358Z,76.90
2022-11-02T12:44:41.913Z,76.90
2022-11-02T12:47:38.135Z,76.70
2022-11-02T12:50:05.340Z,76.70
2022-11-02T12:53:00.122Z,76.50
2022-11-02T12:55:41.752Z,76.80
2022-11-02T12:58:27.131Z,77.00
2022-11-02T13:01:19.665Z,77.40
2022-11-02T13:04:03.665Z,77.80
2022-11-02T13:06:41.182Z,77.60
2022-11-02T13:09:18.497Z,77.50
2022-11-02T13:11:54.423Z,77.60
2022-11-02T13:14:24.412Z,77.80
2022-11-02T13:17:17.959Z,78.00
2022-11-02T13:19:49.944Z,78.00
2022-11-02T13:22:19.894Z,78.00
2022-11-02T13:24:52.144Z,78.10
2022-11-02T13:27:47.459Z,78.30
2022-11-02T13:30:16.892Z,78.90
2022-11-02T13:33:07.106Z,79.60
2022-11-02T13:35:37.540Z,79.60
2022-11-02T13:38:17.383Z,79.90
2022-11-02T13:41:02.112Z,80.30
2022-11-02T13:43:44.200Z,80.40
2022-11-02T13:46:23.220Z,80.60
2022-11-02T13:49:11.972Z,80.80
2022-11-02T13:51:46.829Z,80.90
2022-11-02T13:54:20.904Z,81.10
2022-11-02T13:56:52.833Z,81.20
2022-11-02T13:59:25.977Z,81.10
2022-11-02T14:01:55.170Z,81.20
2022-11-02T14:04:24.613Z,81.20
2022-11-02T14:06:56.723Z,81.10
2022-11-02T14:09:35.583Z,81.10
2022-11-02T14:12:17.616Z,81.00
2022-11-02T14:14:45.495Z,81.00
2022-11-02T14:17:14.314Z,80.80
2022-11-02T14:19:44.497Z,80.60
2022-11-02T14:22:17.513Z,80.50
2022-11-02T14:24:49.257Z,80.30
2022-11-02T14:27:19.039Z,80.10
2022-11-02T14:29:46.126Z,80.00
2022-11-02T14:32:26.907Z,79.90
2022-11-02T14:35:18.694Z,79.70
2022-11-02T14:38:16.329Z,79.50
2022-11-02T14:41:05.054Z,79.40
2022-11-02T14:43:47.482Z,79.20
2022-11-02T14:46:42.270Z,79.00
2022-11-02T14:49:20.646Z,79.00
2022-11-02T14:52:03.606Z,79.00
2022-11-02T14:54:36.503Z,79.00
2022-11-02T14:57:15.101Z,79.00
2022-11-02T14:59:47.486Z,79.00
2022-11-02T15:02:17.514Z,79.10
2022-11-02T15:04:56.313Z,79.10
2022-11-02T15:07:51.946Z,79.20
2022-11-02T15:10:18.938Z,79.30
2022-11-02T15:12:48.358Z,79.40
2022-11-02T15:15:35.294Z,79.20
2022-11-02T15:18:21.764Z,79.40
2022-11-02T15:21:10.937Z,79.50
2022-11-02T15:24:11.098Z,79.50
2022-11-02T15:26:58.829Z,79.60
2022-11-02T15:29:43.982Z,79.50
2022-11-02T15:32:23.028Z,79.50
2022-11-02T15:34:52.939Z,79.60
2022-11-02T15:37:25.453Z,79.50
2022-11-02T15:40:04.781Z,79.60
2022-11-02T15:42:48.184Z,80.20
2022-11-02T15:45:56.927Z,79.50
2022-11-02T15:48:53.334Z,79.40
2022-11-02T15:51:23.267Z,79.40
2022-11-02T15:54:05.973Z,79.40
2022-11-02T15:56:54.431Z,79.50
2022-11-02T15:59:21.428Z,79.60
2022-11-02T16:02:05.304Z,79.60
2022-11-02T16:04:35.014Z,79.60
2022-11-02T16:07:06.821Z,79.70
2022-11-02T16:09:36.193Z,80.40
2022-11-02T16:12:21.242Z,79.80
2022-11-02T16:14:53.099Z,79.90
2022-11-02T16:17:22.522Z,79.90
2022-11-02T16:19:49.793Z,79.80
2022-11-02T16:22:24.887Z,79.80
2022-11-02T16:24:53.483Z,79.70
2022-11-02T16:27:22.232Z,79.70
2022-11-02T16:29:50.739Z,79.70
2022-11-02T16:32:17.910Z,79.60
2022-11-02T16:34:45.256Z,79.60
2022-11-02T16:37:17.197Z,79.30
2022-11-02T16:39:47.201Z,79.30
2022-11-02T16:42:22.738Z,79.00
2022-11-02T16:45:01.198Z,79.10
2022-11-02T16:47:40.407Z,79.00
2022-11-02T16:50:20.998Z,79.20
2022-11-02T16:53:01.274Z,79.50
2022-11-02T16:55:37.317Z,79.60
2022-11-02T16:58:08.220Z,78.80
2022-11-02T17:00:36.433Z,79.40
2022-11-02T17:03:15.197Z,79.50
2022-11-02T17:05:42.842Z,79.60
2022-11-02T17:08:25.937Z,79.70
2022-11-02T17:10:56.310Z,80.00
2022-11-02T17:13:25.295Z,79.90
2022-11-02T17:15:54.421Z,79.90
2022-11-02T17:18:21.442Z,80.10
2022-11-02T17:21:09.130Z,80.20
2022-11-02T17:23:36.975Z,80.50
2022-11-02T17:26:22.371Z,80.50
2022-11-02T17:28:51.569Z,81.00
2022-11-02T17:31:20.925Z,80.90
2022-11-02T17:33:48.643Z,81.20
2022-11-02T17:36:16.555Z,81.40
2022-11-02T17:38:43.892Z,81.40
2022-11-02T17:41:35.699Z,81.40
2022-11-02T17:44:03.494Z,81.20
2022-11-02T17:46:31.031Z,81.20
2022-11-02T17:48:58.080Z,81.20
2022-11-02T17:51:25.666Z,81.30
2022-11-02T17:53:52.746Z,81.20
2022-11-02T17:56:19.931Z,80.90
2022-11-02T17:58:47.015Z,80.60
2022-11-02T18:01:14.194Z,80.50
2022-11-02T18:03:41.420Z,80.60
2022-11-02T18:06:08.810Z,80.50
2022-11-02T18:08:56.066Z,80.20
2022-11-02T18:11:26.256Z,80.20
2022-11-02T18:13:53.858Z,80.10
2022-11-02T18:16:21.023Z,80.10
2022-11-02T18:18:48.107Z,79.90
2022-11-02T18:21:15.221Z,79.80
2022-11-02T18:23:42.260Z,79.90
2022-11-02T18:26:11.531Z,79.90
2022-11-02T18:28:39.012Z,79.70
2022-11-02T18:31:07.352Z,79.70
2022-11-02T18:33:34.491Z,80.20
2022-11-02T18:36:03.610Z,80.10
2022-11-02T18:38:31.030Z,80.20
2022-11-02T18:41:27.581Z,80.00
2022-11-02T18:44:02.376Z,80.00
2022-11-02T18:46:32.136Z,79.50
2022-11-02T18:48:59.634Z,79.30
2022-11-02T18:51:26.815Z,79.30
2022-11-02T18:53:58.652Z,78.90
2022-11-02T18:56:26.173Z,79.00
2022-11-02T18:58:54.653Z,79.40
2022-11-02T19:01:23.599Z,78.70
2022-11-02T19:04:00.444Z,78.60
2022-11-02T19:06:48.038Z,78.40
2022-11-02T19:09:19.212Z,78.20
2022-11-02T19:12:00.310Z,78.10
2022-11-02T19:14:38.089Z,78.20
2022-11-02T19:17:06.822Z,78.30
2022-11-02T19:19:34.211Z,78.30
2022-11-02T19:22:01.667Z,78.30
2022-11-02T19:24:28.741Z,77.90
2022-11-02T19:26:55.795Z,77.80
2022-11-02T19:29:22.895Z,77.80
2022-11-02T19:31:50.137Z,77.80
2022-11-02T19:34:17.216Z,77.70
2022-11-02T19:36:44.243Z,77.50
2022-11-02T19:39:11.448Z,77.30
2022-11-02T19:41:39.102Z,77.20
2022-11-02T19:44:06.982Z,76.90
2022-11-02T19:46:35.123Z,76.70
2022-11-02T19:49:02.193Z,76.50
2022-11-02T19:51:30.448Z,76.50
2022-11-02T19:54:00.119Z,76.40
2022-11-02T19:56:29.461Z,76.30
2022-11-02T19:58:57.249Z,76.10
2022-11-02T20:01:26.829Z,76.60
2022-11-02T20:03:55.329Z,76.80
2022-11-02T20:06:33.047Z,76.80
2022-11-02T20:09:07.157Z,76.50
2022-11-02T20:11:36.218Z,76.50
2022-11-02T20:14:05.257Z,77.10
2022-11-02T20:16:32.350Z,76.40
2022-11-02T20:18:59.726Z,76.40
2022-11-02T20:21:33.429Z,76.50
2022-11-02T20:24:04.430Z,76.30
2022-11-02T20:26:35.941Z,76.20
2022-11-02T20:29:04.634Z,76.10
2022-11-02T20:31:33.932Z,76.00
2022-11-02T20:34:02.110Z,76.00
2022-11-02T20:36:29.464Z,75.90
2022-11-02T20:38:56.881Z,75.90
2022-11-02T20:41:24.818Z,75.80
2022-11-02T20:43:55.091Z,75.80
2022-11-02T20:46:42.205Z,75.80
2022-11-02T20:51:57.683Z,75.50
2022-11-02T20:54:26.115Z,75.40
2022-11-02T20:56:53.283Z,74.90
2022-11-02T20:59:20.327Z,74.70
2022-11-02T21:01:47.589Z,73.80
2022-11-02T21:04:20.331Z,74.40
2022-11-02T21:06:51.580Z,74.30
2022-11-02T21:09:19.244Z,74.30
2022-11-02T21:12:05.036Z,74.20
2022-11-02T21:14:32.088Z,74.30
2022-11-02T21:16:59.193Z,74.40
2022-11-02T21:19:26.240Z,74.60
2022-11-02T21:21:59.051Z,74.60
2022-11-02T21:24:26.496Z,74.50
2022-11-02T21:26:53.516Z,74.60
2022-11-02T21:29:21.153Z,75.40
2022-11-02T21:31:48.647Z,74.80
2022-11-02T21:34:16.094Z,74.80
2022-11-02T21:36:43.140Z,75.20
2022-11-02T21:39:10.198Z,75.30
2022-11-02T21:41:38.763Z,75.90
2022-11-02T21:44:07.149Z,76.30
2022-11-02T21:46:34.740Z,76.40
2022-11-02T21:49:01.825Z,76.40
2022-11-02T21:51:28.912Z,76.60
2022-11-02T21:53:56.602Z,76.60
2022-11-02T21:56:26.182Z,76.50
2022-11-02T21:58:56.419Z,76.60
2022-11-02T22:01:44.817Z,76.60
2022-11-02T22:04:14.661Z,76.50
2022-11-02T22:06:42.471Z,76.50
2022-11-02T22:09:11.637Z,76.50
2022-11-02T22:11:39.564Z,76.40
2022-11-02T22:14:06.933Z,76.10
2022-11-02T22:16:40.330Z,76.10
2022-11-02T22:19:15.166Z,76.00
2022-11-02T22:21:44.493Z,76.10
2022-11-02T22:24:12.179Z,76.20
2022-11-02T22:26:40.243Z,76.10
2022-11-02T22:29:08.363Z,76.50
2022-11-02T22:31:38.865Z,77.10
2022-11-02T22:34:08.907Z,76.10
2022-11-02T22:36:37.574Z,76.00
2022-11-02T22:39:06.785Z,76.10
2022-11-02T22:41:47.422Z,75.90
2022-11-02T22:44:20.808Z,75.60
2022-11-02T22:46:50.540Z,75.60
2022-11-02T22:49:19.341Z,75.50
2022-11-02T22:51:49.153Z,75.40
2022-11-02T22:54:18.402Z,75.30
2022-11-02T22:56:47.406Z,75.10
2022-11-02T22:59:15.323Z,75.00
2022-11-02T23:01:42.817Z,74.90
2022-11-02T23:04:10.989Z,74.70
2022-11-02T23:06:38.356Z,75.00
2022-11-02T23:09:05.882Z,75.00
2022-11-02T23:11:36.168Z,74.80
2022-11-02T23:14:06.730Z,74.60
2022-11-02T23:16:35.062Z,74.60
2022-11-02T23:19:27.341Z,74.70
2022-11-02T23:22:21.205Z,74.70
2022-11-02T23:25:10.549Z,75.10
2022-11-02T23:28:16.585Z,75.10
2022-11-02T23:31:02.871Z,75.30
2022-11-02T23:33:32.295Z,75.70
2022-11-02T23:36:12.939Z,75.20
2022-11-02T23:39:07.946Z,75.40
2022-11-02T23:41:38.471Z,75.10
2022-11-02T23:44:12.338Z,74.90
2022-11-02T23:46:44.758Z,75.00
2022-11-02T23:49:13.087Z,75.00
2022-11-02T23:51:58.605Z,75.10
2022-11-02T23:54:51.615Z,75.30
2022-11-02T23:57:20.129Z,75.20
2022-11-02T23:59:47.156Z,75.00
